Time;durP1;ratioP1;P1;durP2;ratioP2;P2;SDS_P1;SDS_P2;PMS_P1;PMS_P2;Temp;Humidity;BMP_temperature;BMP_pressure;BME280_temperature;BME280_humidity;BME280_pressure;Samples;Min_cycle;Max_cycle;Signal;HPM_P1;HPM_P2
2022/12/12 00:00:50;;;;;;;;;;;;;;;;;;5023451;28;19944;-83
2022/12/12 00:03:15;;;;;;;;;;;;;;;;;;5005418;28;19917;-80
2022/12/12 00:05:41;;;;;;;;;;;;;;;;;;5011171;28;20012;-82
2022/12/12 00:08:06;;;;;;;;;;;;;;;;;;5031048;28;19913;-82
2022/12/12 00:10:32;;;;;;;;;;;;;;;;;;5048562;28;19917;-83
2022/12/12 00:12:57;;;;;;;;;;;;;;;;;;5030942;28;20388;-83
2022/12/12 00:15:23;;;;;;;;;;;;;;;;;;5032484;28;19992;-82
2022/12/12 00:17:48;;;;;;;;;;;;;;;;;;5018460;28;19936;-83
2022/12/12 00:20:14;;;;;;;;;;;;;;;;;;5019292;28;19940;-83
2022/12/12 00:22:39;;;;;;;;;;;;;;;;;;5034311;28;19914;-83
2022/12/12 00:25:05;;;;;;;;;;;;;;;;;;5031731;28;19919;-83
2022/12/12 00:27:31;;;;;;;;;;;;;;;;;;5033084;28;19920;-82
2022/12/12 00:29:56;;;;;;;;;;;;;;;;;;5051783;28;19921;-83
2022/12/12 00:32:22;;;;;;;;;;;;;;;;;;5031688;28;19924;-83
2022/12/12 00:34:48;;;;;;;;;;;;;;;;;;5030757;28;20281;-83
2022/12/12 00:37:13;;;;;;;;;;;;;;;;;;5030856;28;19921;-83
2022/12/12 00:39:40;;;;;;;;;;;;;;;;;;5015427;28;19920;-82
2022/12/12 00:42:05;;;;;;;;;;;;;;;;;;5047587;28;19913;-82
2022/12/12 00:44:31;;;;;;;;;;;;;;;;;;5046839;28;20373;-83
2022/12/12 00:46:57;;;;;;;;;;;;;;;;;;5052792;28;19944;-82
2022/12/12 00:49:22;;;;;;;;;;;;;;;;;;5018043;28;20292;-84
2022/12/12 00:51:48;;;;;;;;;;;;;;;;;;5001241;28;19914;-82
2022/12/12 00:54:13;;;;;;;;;;;;;;;;;;5031268;28;19917;-82
2022/12/12 00:56:39;;;;;;;;;;;;;;;;;;5015702;28;19964;-83
2022/12/12 00:59:04;;;;;;;;;;;;;;;;;;5052059;28;19956;-83
2022/12/12 01:01:30;;;;;;;;;;;;;;;;;;5054616;28;19917;-83
2022/12/12 01:03:55;;;;;;;;;;;;;;;;;;5036007;28;19913;-83
2022/12/12 01:06:21;;;;;;;;;;;;;;;;;;5015666;28;19921;-83
2022/12/12 01:08:46;;;;;;;;;;;;;;;;;;5034602;28;19914;-84
2022/12/12 01:11:12;;;;;;;;;;;;;;;;;;5019905;28;19913;-84
2022/12/12 01:13:37;;;;;;;;;;;;;;;;;;5015644;28;19959;-83
2022/12/12 01:16:03;;;;;;;;;;;;;;;;;;5054868;28;20395;-83
2022/12/12 01:18:29;;;;;;;;;;;;;;;;;;5040007;28;20301;-84
2022/12/12 01:20:54;;;;;;;;;;;;;;;;;;5020684;28;19945;-84
2022/12/12 01:23:20;;;;;;;;;;;;;;;;;;5034591;28;19913;-82
2022/12/12 01:25:46;;;;;;;;;;;;;;;;;;5017649;28;19984;-83
2022/12/12 01:28:11;;;;;;;;;;;;;;;;;;5031919;28;19921;-82
2022/12/12 01:30:37;;;;;;;;;;;;;;;;;;5044146;28;19917;-83
2022/12/12 01:33:02;;;;;;;;;;;;;;;;;;5038393;28;19913;-83
2022/12/12 01:35:28;;;;;;;;;;;;;;;;;;5048370;28;19913;-83
2022/12/12 01:37:53;;;;;;;;;;;;;;;;;;5052007;28;19924;-83
2022/12/12 01:40:19;;;;;;;;;;;;;;;;;;5052635;28;19917;-84
2022/12/12 01:42:44;;;;;;;;;;;;;;;;;;5054098;28;19917;-84
2022/12/12 01:45:10;;;;;;;;;;;;;;;;;;5017789;28;19913;-83
2022/12/12 01:47:35;;;;;;;;;;;;;;;;;;5018326;28;19909;-82
2022/12/12 01:50:01;;;;;;;;;;;;;;;;;;5016178;28;19924;-83
2022/12/12 01:52:27;;;;;;;;;;;;;;;;;;5049688;28;19972;-83
2022/12/12 01:54:52;;;;;;;;;;;;;;;;;;5033104;28;19962;-83
2022/12/12 01:57:17;;;;;;;;;;;;;;;;;;5033658;28;19913;-83
2022/12/12 01:59:43;;;;;;;;;;;;;;;;;;5032699;28;19960;-83
2022/12/12 02:02:08;;;;;;;;;;;;;;;;;;5033996;28;19901;-82
2022/12/12 02:04:34;;;;;;;;;;;;;;;;;;5034390;28;20069;-83
2022/12/12 02:06:59;;;;;;;;;;;;;;;;;;5030449;28;19980;-82
2022/12/12 02:09:25;;;;;;;;;;;;;;;;;;5046761;28;20051;-83
2022/12/12 02:11:51;;;;;;;;;;;;;;;;;;5028242;28;20004;-82
2022/12/12 02:14:16;;;;;;;;;;;;;;;;;;5028448;28;19980;-81
2022/12/12 02:16:41;;;;;;;;;;;;;;;;;;5026017;28;20024;-81
2022/12/12 02:19:07;;;;;;;;;;;;;;;;;;5012026;28;20281;-82
2022/12/12 02:21:33;;;;;;;;;;;;;;;;;;5011693;28;19918;-82
2022/12/12 02:23:59;;;;;;;;;;;;;;;;;;5010102;28;19924;-82
2022/12/12 02:26:24;;;;;;;;;;;;;;;;;;5026834;28;19914;-83
2022/12/12 02:28:50;;;;;;;;;;;;;;;;;;5032693;28;20030;-82
2022/12/12 02:31:15;;;;;;;;;;;;;;;;;;5040172;23;19929;-83
2022/12/12 02:33:40;;;;;;;;;;;;;;;;;;5053785;28;19920;-82
2022/12/12 02:36:06;;;;;;;;;;;;;;;;;;5026701;28;20407;-83
2022/12/12 02:38:31;;;;;;;;;;;;;;;;;;5044085;28;19944;-81
2022/12/12 02:40:57;;;;;;;;;;;;;;;;;;5050266;28;20396;-81
2022/12/12 02:43:22;;;;;;;;;;;;;;;;;;5052357;28;19916;-82
2022/12/12 02:45:48;;;;;;;;;;;;;;;;;;5060116;28;19958;-82
2022/12/12 02:48:13;;;;;;;;;;;;;;;;;;5027968;28;20271;-82
2022/12/12 02:50:38;;;;;;;;;;;;;;;;;;5052635;28;19924;-81
2022/12/12 02:53:04;;;;;;;;;;;;;;;;;;5048990;28;19917;-81
2022/12/12 02:55:29;;;;;;;;;;;;;;;;;;5045296;28;20448;-81
2022/12/12 02:57:55;;;;;;;;;;;;;;;;;;5038828;28;19932;-81
2022/12/12 03:00:20;;;;;;;;;;;;;;;;;;5054050;28;19948;-81
2022/12/12 03:02:45;;;;;;;;;;;;;;;;;;5045897;28;20584;-81
2022/12/12 03:07:56;;;;;;;;;;;;;;;;;;5056382;28;19920;-81
2022/12/12 03:10:21;;;;;;;;;;;;;;;;;;5039701;28;20261;-81
2022/12/12 03:12:47;;;;;;;;;;;;;;;;;;5058822;28;19919;-81
2022/12/12 03:15:13;;;;;;;;;;;;;;;;;;5047568;28;19917;-81
2022/12/12 03:17:38;;;;;;;;;;;;;;;;;;5038201;28;20412;-81
2022/12/12 03:20:03;;;;;;;;;;;;;;;;;;5049241;28;20056;-80
2022/12/12 03:22:29;;;;;;;;;;;;;;;;;;5035671;28;19912;-81
2022/12/12 03:24:54;;;;;;;;;;;;;;;;;;5066996;28;19912;-81
2022/12/12 03:27:20;;;;;;;;;;;;;;;;;;5065601;28;20335;-81
2022/12/12 03:29:45;;;;;;;;;;;;;;;;;;5066831;28;19917;-81
2022/12/12 03:32:10;;;;;;;;;;;;;;;;;;5047327;28;20067;-81
2022/12/12 03:34:36;;;;;;;;;;;;;;;;;;5056084;28;19917;-81
2022/12/12 03:37:01;;;;;;;;;;;;;;;;;;5054086;28;20384;-81
2022/12/12 03:39:27;;;;;;;;;;;;;;;;;;5049178;28;19932;-81
2022/12/12 03:41:52;;;;;;;;;;;;;;;;;;5042323;28;19966;-81
2022/12/12 03:44:17;;;;;;;;;;;;;;;;;;5046057;28;19955;-81
2022/12/12 03:46:43;;;;;;;;;;;;;;;;;;5046625;28;19969;-82
2022/12/12 03:49:08;;;;;;;;;;;;;;;;;;5061530;28;19917;-82
2022/12/12 03:51:33;;;;;;;;;;;;;;;;;;5031254;28;19913;-82
2022/12/12 03:53:59;;;;;;;;;;;;;;;;;;5049257;28;19913;-81
2022/12/12 03:56:26;;;;;;;;;;;;;;;;;;5033913;28;19923;-83
2022/12/12 03:58:51;;;;;;;;;;;;;;;;;;5055508;28;19909;-82
2022/12/12 04:01:16;;;;;;;;;;;;;;;;;;5057162;28;19913;-82
2022/12/12 04:03:42;;;;;;;;;;;;;;;;;;5047561;28;19919;-82
2022/12/12 04:06:25;;;;;;;;;;;;;;;;;;5028228;28;19912;-82
2022/12/12 04:14:19;;;;;;;;;;;;;;;;;;5045248;28;19921;-81
2022/12/12 04:16:44;;;;;;;;;;;;;;;;;;5055483;28;19939;-81
2022/12/12 04:19:10;;;;;;;;;;;;;;;;;;5053428;28;19915;-81
2022/12/12 04:24:19;;;;;;;;;;;;;;;;;;5021769;28;20358;-81
2022/12/12 04:26:45;;;;;;;;;;;;;;;;;;5038867;28;19920;-81
2022/12/12 04:29:10;;;;;;;;;;;;;;;;;;5034367;28;19913;-82
2022/12/12 04:31:35;;;;;;;;;;;;;;;;;;5057898;28;20334;-81
2022/12/12 04:34:01;;;;;;;;;;;;;;;;;;5047050;28;19913;-81
2022/12/12 04:36:26;;;;;;;;;;;;;;;;;;5063646;28;20331;-81
2022/12/12 04:38:51;;;;;;;;;;;;;;;;;;5064519;28;19912;-81
2022/12/12 04:41:17;;;;;;;;;;;;;;;;;;5051684;28;19921;-81
2022/12/12 04:43:42;;;;;;;;;;;;;;;;;;5035168;28;20273;-82
2022/12/12 04:46:08;;;;;;;;;;;;;;;;;;5059436;28;19996;-81
2022/12/12 04:48:33;;;;;;;;;;;;;;;;;;5048681;28;20379;-81
2022/12/12 04:50:58;;;;;;;;;;;;;;;;;;5051014;28;19952;-82
2022/12/12 04:53:24;;;;;;;;;;;;;;;;;;5055741;28;19912;-82
2022/12/12 04:55:51;;;;;;;;;;;;;;;;;;5047847;28;19919;-82
2022/12/12 04:58:16;;;;;;;;;;;;;;;;;;5041924;28;19913;-82
2022/12/12 05:00:42;;;;;;;;;;;;;;;;;;5042782;28;20432;-81
2022/12/12 05:03:08;;;;;;;;;;;;;;;;;;5014709;28;19920;-81
2022/12/12 05:05:33;;;;;;;;;;;;;;;;;;5026595;28;19913;-81
2022/12/12 05:07:58;;;;;;;;;;;;;;;;;;5054249;28;19920;-82
2022/12/12 05:10:24;;;;;;;;;;;;;;;;;;5043025;28;19924;-81
2022/12/12 05:12:49;;;;;;;;;;;;;;;;;;5050510;28;19920;-82
2022/12/12 05:15:14;;;;;;;;;;;;;;;;;;5050804;28;20338;-82
2022/12/12 05:17:40;;;;;;;;;;;;;;;;;;5044411;28;19909;-82
2022/12/12 05:20:05;;;;;;;;;;;;;;;;;;5037119;28;20324;-82
2022/12/12 05:22:31;;;;;;;;;;;;;;;;;;5044912;28;19944;-82
2022/12/12 05:24:56;;;;;;;;;;;;;;;;;;5058903;28;19966;-81
2022/12/12 05:27:21;;;;;;;;;;;;;;;;;;5044360;28;19917;-81
2022/12/12 05:29:47;;;;;;;;;;;;;;;;;;5040851;28;19924;-83
2022/12/12 05:32:12;;;;;;;;;;;;;;;;;;5031530;28;19917;-82
2022/12/12 05:34:37;;;;;;;;;;;;;;;;;;5031817;28;19913;-82
2022/12/12 05:37:03;;;;;;;;;;;;;;;;;;5056356;28;19913;-83
2022/12/12 05:39:28;;;;;;;;;;;;;;;;;;5049395;28;19920;-82
2022/12/12 05:41:54;;;;;;;;;;;;;;;;;;5045238;28;20395;-81
2022/12/12 05:44:19;;;;;;;;;;;;;;;;;;5062049;28;19920;-83
2022/12/12 05:46:45;;;;;;;;;;;;;;;;;;5061548;28;20453;-83
2022/12/12 05:49:10;;;;;;;;;;;;;;;;;;5062395;28;19944;-82
2022/12/12 05:51:35;;;;;;;;;;;;;;;;;;5052808;28;19972;-83
2022/12/12 05:54:01;;;;;;;;;;;;;;;;;;5049682;28;19924;-83
2022/12/12 05:56:26;;;;;;;;;;;;;;;;;;5061668;28;19961;-82
2022/12/12 05:58:52;;;;;;;;;;;;;;;;;;5055471;28;19967;-83
2022/12/12 06:01:17;;;;;;;;;;;;;;;;;;5058237;28;19913;-83
2022/12/12 06:03:42;;;;;;;;;;;;;;;;;;5063605;28;20360;-83
2022/12/12 06:06:08;;;;;;;;;;;;;;;;;;5053024;28;19921;-83
2022/12/12 06:08:33;;;;;;;;;;;;;;;;;;5056558;28;20376;-82
2022/12/12 06:10:58;;;;;;;;;;;;;;;;;;5043020;28;19913;-82
2022/12/12 06:13:24;;;;;;;;;;;;;;;;;;5053282;28;19913;-82
2022/12/12 06:15:49;;;;;;;;;;;;;;;;;;5041863;28;19913;-80
2022/12/12 06:18:15;;;;;;;;;;;;;;;;;;5055633;28;19917;-82
2022/12/12 06:20:40;;;;;;;;;;;;;;;;;;5022961;28;19921;-82
2022/12/12 06:23:06;;;;;;;;;;;;;;;;;;5043828;28;19938;-81
2022/12/12 06:25:31;;;;;;;;;;;;;;;;;;5048853;28;20316;-82
2022/12/12 06:27:57;;;;;;;;;;;;;;;;;;5047255;28;19913;-82
2022/12/12 06:30:22;;;;;;;;;;;;;;;;;;5054311;28;19952;-81
2022/12/12 06:32:47;;;;;;;;;;;;;;;;;;5044766;28;19917;-83
2022/12/12 06:35:13;;;;;;;;;;;;;;;;;;5057853;28;19925;-82
2022/12/12 06:37:38;;;;;;;;;;;;;;;;;;5047826;28;19913;-82
2022/12/12 06:40:04;;;;;;;;;;;;;;;;;;5061901;28;19920;-82
2022/12/12 06:42:29;;;;;;;;;;;;;;;;;;5033278;28;19963;-82
2022/12/12 06:44:54;;;;;;;;;;;;;;;;;;5024162;28;19913;-82
2022/12/12 06:47:20;;;;;;;;;;;;;;;;;;5042104;28;19939;-82
2022/12/12 06:49:45;;;;;;;;;;;;;;;;;;5048731;28;19917;-81
2022/12/12 06:52:11;;;;;;;;;;;;;;;;;;5037071;28;20000;-81
2022/12/12 06:54:37;;;;;;;;;;;;;;;;;;5058755;28;19919;-81
2022/12/12 06:57:02;;;;;;;;;;;;;;;;;;5052294;28;19917;-81
2022/12/12 06:59:29;;;;;;;;;;;;;;;;;;5049572;28;19917;-81
2022/12/12 07:01:54;;;;;;;;;;;;;;;;;;5042580;28;20054;-82
2022/12/12 07:04:20;;;;;;;;;;;;;;;;;;5056045;28;19913;-81
2022/12/12 07:06:45;;;;;;;;;;;;;;;;;;5052465;28;19913;-81
2022/12/12 07:09:11;;;;;;;;;;;;;;;;;;5040238;28;19917;-82
2022/12/12 07:11:36;;;;;;;;;;;;;;;;;;5041371;28;19913;-82
2022/12/12 07:14:04;;;;;;;;;;;;;;;;;;5037259;28;19914;-82
2022/12/12 07:16:29;;;;;;;;;;;;;;;;;;5015256;28;19916;-81
2022/12/12 07:18:55;;;;;;;;;;;;;;;;;;5055621;28;20064;-81
2022/12/12 07:21:20;;;;;;;;;;;;;;;;;;5053382;28;19913;-80
2022/12/12 07:23:46;;;;;;;;;;;;;;;;;;5048249;28;19937;-80
2022/12/12 07:26:11;;;;;;;;;;;;;;;;;;5056470;28;19995;-81
2022/12/12 07:28:37;;;;;;;;;;;;;;;;;;5039963;28;19913;-81
2022/12/12 07:31:02;;;;;;;;;;;;;;;;;;5046973;28;19960;-79
2022/12/12 07:33:27;;;;;;;;;;;;;;;;;;5046851;28;20439;-81
2022/12/12 07:35:53;;;;;;;;;;;;;;;;;;5037315;28;19935;-81
2022/12/12 07:38:18;;;;;;;;;;;;;;;;;;5053983;28;19916;-80
2022/12/12 07:40:44;;;;;;;;;;;;;;;;;;5038097;28;20410;-81
2022/12/12 07:43:09;;;;;;;;;;;;;;;;;;5049415;28;19976;-81
2022/12/12 07:45:35;;;;;;;;;;;;;;;;;;5055316;28;19923;-81
2022/12/12 07:48:00;;;;;;;;;;;;;;;;;;5050867;28;19981;-82
2022/12/12 07:50:25;;;;;;;;;;;;;;;;;;5047249;28;19976;-81
2022/12/12 07:52:51;;;;;;;;;;;;;;;;;;5048950;28;19945;-81
2022/12/12 07:55:16;;;;;;;;;;;;;;;;;;5050932;28;19976;-81
2022/12/12 07:57:41;;;;;;;;;;;;;;;;;;5048392;28;20424;-81
2022/12/12 08:00:07;;;;;;;;;;;;;;;;;;5041253;28;19980;-82
2022/12/12 08:02:37;;;;;;;;;;;;;;;;;;5040054;28;19924;-81
2022/12/12 08:05:03;;;;;;;;;;;;;;;;;;5039307;28;19913;-80
2022/12/12 08:07:28;;;;;;;;;;;;;;;;;;5037371;28;19967;-80
2022/12/12 08:09:53;;;;;;;;;;;;;;;;;;5035363;28;19939;-81
2022/12/12 08:12:19;;;;;;;;;;;;;;;;;;5001569;28;20364;-79
2022/12/12 08:14:44;;;;;;;;;;;;;;;;;;5017391;28;19917;-81
2022/12/12 08:17:09;;;;;;;;;;;;;;;;;;5040047;28;19941;-82
2022/12/12 08:19:35;;;;;;;;;;;;;;;;;;5025800;28;19952;-83
2022/12/12 08:22:00;;;;;;;;;;;;;;;;;;5026776;28;20385;-83
2022/12/12 08:24:27;;;;;;;;;;;;;;;;;;5029840;28;20023;-83
2022/12/12 08:26:53;;;;;;;;;;;;;;;;;;5025663;28;20370;-82
2022/12/12 08:29:18;;;;;;;;;;;;;;;;;;5044819;28;19917;-82
2022/12/12 08:31:44;;;;;;;;;;;;;;;;;;5086151;22;19984;-83
2022/12/12 08:34:09;;;;;;;;;;;;;;;;;;5062898;28;19913;-82
2022/12/12 08:36:35;;;;;;;;;;;;;;;;;;5048202;28;20372;-81
2022/12/12 08:39:00;;;;;;;;;;;;;;;;;;5074479;22;19995;-82
2022/12/12 08:41:31;;;;;;;;;;;;;;;;;;5317177;22;19921;-85
2022/12/12 08:43:57;;;;;;;;;;;;;;;;;;5059135;28;19962;-85
2022/12/12 08:46:22;;;;;;;;;;;;;;;;;;5558224;22;19985;-84
2022/12/12 08:48:48;;;;;;;;;;;;;;;;;;5075995;28;19945;-84
2022/12/12 08:51:16;;;;;;;;;;;;;;;;;;5043205;28;19952;-84
2022/12/12 08:53:46;;;;;;;;;;;;;;;;;;5060909;28;19913;-84
2022/12/12 08:56:12;;;;;;;;;;;;;;;;;;5060035;28;19901;-84
2022/12/12 09:04:03;;;;;;;;;;;;;;;;;;4979995;28;19917;-84
2022/12/12 09:06:29;;;;;;;;;;;;;;;;;;4982159;28;19919;-85
2022/12/12 09:08:54;;;;;;;;;;;;;;;;;;5408738;22;19909;-86
2022/12/12 09:11:37;;;;;;;;;;;;;;;;;;5040510;28;19902;-83
2022/12/12 09:14:05;;;;;;;;;;;;;;;;;;5203740;23;19959;-84
2022/12/12 09:19:09;;;;;;;;;;;;;;;;;;4980005;28;19934;-80
2022/12/12 09:26:44;;;;;;;;;;;;;;;;;;5000085;28;19973;-85
2022/12/12 09:29:10;;;;;;;;;;;;;;;;;;4967963;28;19910;-85
2022/12/12 09:31:35;;;;;;;;;;;;;;;;;;5042183;23;19921;-83
2022/12/12 09:34:01;;;;;;;;;;;;;;;;;;5327520;23;19926;-84
2022/12/12 09:36:27;;;;;;;;;;;;;;;;;;5004079;28;19921;-84
2022/12/12 09:38:58;;;;;;;;;;;;;;;;;;5019765;28;19933;-83
2022/12/12 09:41:26;;;;;;;;;;;;;;;;;;4984375;28;19922;-84
2022/12/12 09:43:52;;;;;;;;;;;;;;;;;;4984589;28;19918;-87
2022/12/12 10:13:42;;;;;;;;;;;;;;;;;;5498945;22;19941;-83
2022/12/12 10:16:08;;;;;;;;;;;;;;;;;;5017892;28;19919;-82
2022/12/12 10:18:36;;;;;;;;;;;;;;;;;;5035060;28;19963;-83
2022/12/12 10:21:02;;;;;;;;;;;;;;;;;;5018725;28;19905;-83
2022/12/12 10:23:27;;;;;;;;;;;;;;;;;;5019234;28;19923;-83
2022/12/12 10:25:53;;;;;;;;;;;;;;;;;;5021391;28;19913;-83
2022/12/12 10:28:19;;;;;;;;;;;;;;;;;;5045915;28;19913;-82
2022/12/12 10:30:44;;;;;;;;;;;;;;;;;;5040880;28;19921;-81
2022/12/12 10:33:10;;;;;;;;;;;;;;;;;;5032296;28;19913;-82
2022/12/12 10:35:37;;;;;;;;;;;;;;;;;;5031400;28;19932;-82
2022/12/12 10:38:02;;;;;;;;;;;;;;;;;;5041073;28;19977;-82
2022/12/12 10:40:28;;;;;;;;;;;;;;;;;;5028347;28;20381;-83
2022/12/12 10:42:53;;;;;;;;;;;;;;;;;;5039955;28;19913;-82
2022/12/12 10:45:19;;;;;;;;;;;;;;;;;;5051617;28;19922;-82
2022/12/12 10:47:44;;;;;;;;;;;;;;;;;;5053561;28;19960;-84
2022/12/12 10:50:13;;;;;;;;;;;;;;;;;;5023423;28;19941;-83
2022/12/12 10:52:38;;;;;;;;;;;;;;;;;;5001629;28;19925;-84
2022/12/12 10:55:04;;;;;;;;;;;;;;;;;;5015635;28;19953;-82
2022/12/12 10:57:30;;;;;;;;;;;;;;;;;;4998117;28;19914;-81
2022/12/12 10:59:55;;;;;;;;;;;;;;;;;;4993697;28;19914;-82
2022/12/12 11:02:21;;;;;;;;;;;;;;;;;;5010374;28;19925;-82
2022/12/12 11:04:47;;;;;;;;;;;;;;;;;;5012290;28;19932;-82
2022/12/12 11:07:12;;;;;;;;;;;;;;;;;;5011463;28;19955;-82
2022/12/12 11:09:38;;;;;;;;;;;;;;;;;;5036103;28;19927;-81
2022/12/12 11:12:03;;;;;;;;;;;;;;;;;;5014705;28;19920;-81
2022/12/12 11:14:29;;;;;;;;;;;;;;;;;;5013781;28;19924;-82
2022/12/12 11:16:54;;;;;;;;;;;;;;;;;;5032930;28;19917;-82
2022/12/12 11:19:19;;;;;;;;;;;;;;;;;;5024598;28;19944;-81
2022/12/12 11:21:45;;;;;;;;;;;;;;;;;;5003716;28;19929;-81
2022/12/12 11:24:10;;;;;;;;;;;;;;;;;;5021122;28;19920;-83
2022/12/12 11:26:36;;;;;;;;;;;;;;;;;;5031967;28;19913;-82
2022/12/12 11:29:01;;;;;;;;;;;;;;;;;;5043916;28;19917;-83
2022/12/12 11:31:27;;;;;;;;;;;;;;;;;;5043902;28;19913;-80
2022/12/12 11:33:52;;;;;;;;;;;;;;;;;;5023280;28;19920;-82
2022/12/12 11:36:18;;;;;;;;;;;;;;;;;;5032808;28;20283;-82
2022/12/12 11:38:43;;;;;;;;;;;;;;;;;;5012528;28;19917;-81
2022/12/12 11:41:09;;;;;;;;;;;;;;;;;;5019146;28;19913;-81
2022/12/12 11:43:35;;;;;;;;;;;;;;;;;;5031524;28;19909;-83
2022/12/12 11:46:01;;;;;;;;;;;;;;;;;;5019597;28;19985;-84
2022/12/12 11:48:26;;;;;;;;;;;;;;;;;;5020109;28;19913;-84
2022/12/12 11:50:52;;;;;;;;;;;;;;;;;;5036841;28;19909;-82
2022/12/12 11:53:17;;;;;;;;;;;;;;;;;;5036928;28;19914;-82
2022/12/12 11:55:43;;;;;;;;;;;;;;;;;;5036153;28;19909;-82
2022/12/12 11:58:08;;;;;;;;;;;;;;;;;;5027783;28;19914;-84
2022/12/12 12:00:34;;;;;;;;;;;;;;;;;;5018273;28;19901;-82
2022/12/12 12:11:04;;;;;;;;;;;;;;;;;;5917775;22;19925;-84
2022/12/12 12:13:30;;;;;;;;;;;;;;;;;;5057820;28;19917;-84
2022/12/12 12:15:56;;;;;;;;;;;;;;;;;;5024370;28;19905;-84
2022/12/12 13:57:50;;;;;;;;;;;;;;;;;;5935616;22;19928;-83
2022/12/12 14:27:18;;;;;;;;;;;;;;;;;;5959437;22;19917;-85
2022/12/12 14:56:38;;;;;;;;;;;;;;;;;;5035976;28;19925;-85
2022/12/12 14:59:07;;;;;;;;;;;;;;;;;;5017045;28;19914;-84
2022/12/12 15:04:14;;;;;;;;;;;;;;;;;;6022642;22;20672;-84
2022/12/12 15:31:02;;;;;;;;;;;;;;;;;;5887587;22;19925;-86
2022/12/12 15:57:44;;;;;;;;;;;;;;;;;;5768155;22;19909;-83
2022/12/12 16:05:47;;;;;;;;;;;;;;;;;;5358119;22;19913;-84
2022/12/12 16:08:14;;;;;;;;;;;;;;;;;;5410260;22;19917;-87
2022/12/12 16:10:43;;;;;;;;;;;;;;;;;;5055136;28;19933;-87
2022/12/12 16:13:12;;;;;;;;;;;;;;;;;;5029125;28;19921;-87
2022/12/12 16:15:45;;;;;;;;;;;;;;;;;;5303127;23;19910;-86
2022/12/12 16:18:15;;;;;;;;;;;;;;;;;;5625204;22;19924;-82
2022/12/12 16:44:59;;;;;;;;;;;;;;;;;;6118224;22;20894;-80
2022/12/12 17:03:35;;;;;;;;;;;;;;;;;;5727072;22;19925;-85
2022/12/12 17:06:09;;;;;;;;;;;;;;;;;;5309951;22;19968;-85
2022/12/12 17:46:27;;;;;;;;;;;;;;;;;;5328352;22;19944;-85
2022/12/12 17:54:19;;;;;;;;;;;;;;;;;;5854400;22;19916;-84
2022/12/12 17:56:45;;;;;;;;;;;;;;;;;;5994632;22;20002;-87
2022/12/12 18:46:47;;;;;;;;;;;;;;;;;;5575815;22;19926;-86
2022/12/12 18:49:17;;;;;;;;;;;;;;;;;;5024608;28;19924;-85
2022/12/12 18:51:46;;;;;;;;;;;;;;;;;;5020136;28;19920;-85
2022/12/12 18:54:20;;;;;;;;;;;;;;;;;;5020728;28;19913;-85
2022/12/12 19:10:08;;;;;;;;;;;;;;;;;;4972357;28;19926;-77
2022/12/12 19:12:33;;;;;;;;;;;;;;;;;;4987106;28;19914;-76
2022/12/12 19:14:59;;;;;;;;;;;;;;;;;;4991061;28;19970;-77
2022/12/12 19:17:24;;;;;;;;;;;;;;;;;;4992136;28;20270;-75
2022/12/12 19:38:56;;;;;;;;;;;;;;;;;;5741811;22;19909;-87
2022/12/12 19:41:32;;;;;;;;;;;;;;;;;;5697599;23;19910;-87
2022/12/12 19:52:06;;;;;;;;;;;;;;;;;;5612475;22;19909;-85
2022/12/12 19:54:34;;;;;;;;;;;;;;;;;;5703453;22;19928;-79
2022/12/12 20:33:02;;;;;;;;;;;;;;;;;;5333554;22;19931;-80
2022/12/12 20:35:28;;;;;;;;;;;;;;;;;;5075357;28;19913;-79
2022/12/12 20:37:54;;;;;;;;;;;;;;;;;;5060796;28;19984;-79
2022/12/12 20:40:19;;;;;;;;;;;;;;;;;;5050366;28;19920;-79
2022/12/12 20:42:45;;;;;;;;;;;;;;;;;;5023276;28;19923;-79
2022/12/12 20:45:11;;;;;;;;;;;;;;;;;;5051987;28;19959;-81
2022/12/12 20:47:37;;;;;;;;;;;;;;;;;;5017954;28;19913;-79
2022/12/12 20:50:02;;;;;;;;;;;;;;;;;;5002133;28;20429;-78
2022/12/12 20:52:28;;;;;;;;;;;;;;;;;;5013510;28;20040;-78
2022/12/12 20:54:54;;;;;;;;;;;;;;;;;;5016266;28;19921;-79
2022/12/12 20:57:20;;;;;;;;;;;;;;;;;;5042845;28;19920;-78
2022/12/12 20:59:46;;;;;;;;;;;;;;;;;;5002722;28;19940;-80
2022/12/12 21:02:11;;;;;;;;;;;;;;;;;;5034224;28;19913;-79
2022/12/12 21:04:37;;;;;;;;;;;;;;;;;;5010866;28;20029;-79
2022/12/12 21:07:02;;;;;;;;;;;;;;;;;;5014967;28;19980;-80
2022/12/12 21:09:28;;;;;;;;;;;;;;;;;;5003821;28;19917;-80
2022/12/12 21:11:54;;;;;;;;;;;;;;;;;;5028829;28;19914;-81
2022/12/12 21:14:20;;;;;;;;;;;;;;;;;;5012663;28;19921;-79
2022/12/12 21:16:46;;;;;;;;;;;;;;;;;;5013003;28;19913;-80
2022/12/12 21:19:17;;;;;;;;;;;;;;;;;;5018830;28;19996;-80
2022/12/12 21:21:46;;;;;;;;;;;;;;;;;;5043593;28;19917;-81
2022/12/12 21:24:15;;;;;;;;;;;;;;;;;;5042164;28;20000;-79
2022/12/12 21:26:41;;;;;;;;;;;;;;;;;;5059070;28;19913;-78
2022/12/12 21:29:07;;;;;;;;;;;;;;;;;;5043623;28;19917;-80
2022/12/12 21:31:33;;;;;;;;;;;;;;;;;;5041472;28;19917;-79
2022/12/12 21:33:58;;;;;;;;;;;;;;;;;;5025611;28;19916;-80
2022/12/12 21:36:27;;;;;;;;;;;;;;;;;;5024818;28;19967;-81
2022/12/12 21:38:55;;;;;;;;;;;;;;;;;;5040813;28;19905;-79
2022/12/12 21:41:32;;;;;;;;;;;;;;;;;;;;;
2022/12/12 21:44:11;;;;;;;;;;;;;;;;;;5057244;28;20011;-79
2022/12/12 21:46:51;;;;;;;;;;;;;;;;;;5043468;28;19901;-79
2022/12/12 21:49:24;;;;;;;;;;;;;;;;;;5017018;28;20388;-79
2022/12/12 21:51:56;;;;;;;;;;;;;;;;;;5012969;28;19916;-80
2022/12/12 21:54:33;;;;;;;;;;;;;;;;;;4988048;28;19913;-77
2022/12/12 21:57:01;;;;;;;;;;;;;;;;;;5035450;28;20361;-79
2022/12/12 21:59:27;;;;;;;;;;;;;;;;;;5009603;28;19909;-81
2022/12/12 22:01:52;;;;;;;;;;;;;;;;;;5022044;28;19913;-78
2022/12/12 22:04:21;;;;;;;;;;;;;;;;;;5002404;28;20272;-80
2022/12/12 22:06:47;;;;;;;;;;;;;;;;;;5022566;28;20396;-78
2022/12/12 22:09:12;;;;;;;;;;;;;;;;;;4970090;28;19957;-78
2022/12/12 22:11:47;;;;;;;;;;;;;;;;;;5005577;28;19913;-78
2022/12/12 22:14:17;;;;;;;;;;;;;;;;;;5012796;28;19921;-81
2022/12/12 22:16:49;;;;;;;;;;;;;;;;;;5001721;28;19910;-78
2022/12/12 22:19:24;;;;;;;;;;;;;;;;;;5056528;28;20049;-80
2022/12/12 22:21:55;;;;;;;;;;;;;;;;;;5028401;28;19913;-80
2022/12/12 22:24:28;;;;;;;;;;;;;;;;;;5015204;28;19914;-78
2022/12/12 22:26:54;;;;;;;;;;;;;;;;;;5020452;28;19924;-78
2022/12/12 22:29:20;;;;;;;;;;;;;;;;;;4987699;28;19960;-78
2022/12/12 22:31:46;;;;;;;;;;;;;;;;;;5037856;28;19918;-77
2022/12/12 22:34:12;;;;;;;;;;;;;;;;;;5006126;28;19913;-78
2022/12/12 22:36:38;;;;;;;;;;;;;;;;;;5040830;28;19936;-77
2022/12/12 22:39:03;;;;;;;;;;;;;;;;;;5006229;28;19910;-78
2022/12/12 22:41:29;;;;;;;;;;;;;;;;;;4989259;28;19914;-78
2022/12/12 22:43:54;;;;;;;;;;;;;;;;;;4988457;28;19925;-77
2022/12/12 22:46:20;;;;;;;;;;;;;;;;;;5006448;28;19920;-78
2022/12/12 22:48:46;;;;;;;;;;;;;;;;;;5006188;28;19941;-78
2022/12/12 22:51:12;;;;;;;;;;;;;;;;;;5005682;28;19925;-76
2022/12/12 22:53:37;;;;;;;;;;;;;;;;;;5022497;28;19971;-77
2022/12/12 22:56:03;;;;;;;;;;;;;;;;;;5022823;28;19936;-78
2022/12/12 22:58:31;;;;;;;;;;;;;;;;;;4983822;28;19921;-78
2022/12/12 23:00:57;;;;;;;;;;;;;;;;;;5005295;28;19914;-77
2022/12/12 23:03:22;;;;;;;;;;;;;;;;;;4989864;28;19914;-78
2022/12/12 23:05:48;;;;;;;;;;;;;;;;;;5007545;28;19948;-77
2022/12/12 23:08:14;;;;;;;;;;;;;;;;;;4988442;28;20321;-77
2022/12/12 23:10:39;;;;;;;;;;;;;;;;;;4988007;28;19982;-77
2022/12/12 23:13:05;;;;;;;;;;;;;;;;;;4970412;28;19941;-77
2022/12/12 23:15:30;;;;;;;;;;;;;;;;;;5003111;28;19961;-78
2022/12/12 23:17:57;;;;;;;;;;;;;;;;;;5002751;28;20294;-77
2022/12/12 23:20:23;;;;;;;;;;;;;;;;;;5022622;28;19920;-77
2022/12/12 23:22:48;;;;;;;;;;;;;;;;;;4985916;28;19914;-78
2022/12/12 23:25:14;;;;;;;;;;;;;;;;;;5019182;28;19948;-78
2022/12/12 23:27:39;;;;;;;;;;;;;;;;;;5004640;28;19938;-77
2022/12/12 23:30:05;;;;;;;;;;;;;;;;;;5003042;28;19968;-76
2022/12/12 23:32:31;;;;;;;;;;;;;;;;;;5009886;28;19940;-78
2022/12/12 23:34:56;;;;;;;;;;;;;;;;;;5009265;28;19949;-79
2022/12/12 23:37:22;;;;;;;;;;;;;;;;;;5007839;28;19913;-78
2022/12/12 23:39:48;;;;;;;;;;;;;;;;;;4992739;28;19992;-77
2022/12/12 23:42:14;;;;;;;;;;;;;;;;;;5011305;28;19944;-78
2022/12/12 23:44:40;;;;;;;;;;;;;;;;;;5012496;28;19937;-78
2022/12/12 23:47:08;;;;;;;;;;;;;;;;;;5010294;28;19913;-77
2022/12/12 23:49:33;;;;;;;;;;;;;;;;;;5003705;28;19949;-77
2022/12/12 23:51:59;;;;;;;;;;;;;;;;;;5019958;28;19913;-77
2022/12/12 23:54:25;;;;;;;;;;;;;;;;;;5004138;28;20308;-78
2022/12/12 23:56:51;;;;;;;;;;;;;;;;;;5021827;28;20312;-77
2022/12/12 23:59:17;;;;;;;;;;;;;;;;;;4989017;28;19913;-78
